Hines Creek, Canada
Current Conditions -  °F | °C
As of 7:00 PM on Sunday 21 Dec 2014 (Local Time) from CYPE Reporting Station
Broken Clouds Broken Clouds  
Wind Chill: 12°   Ceiling: 20000
Heat Index: 12°   Visibility: 15mi
Dew Point:   Wind: 3mph
Humidity: 85%   Direction: 360°N
Pressure: 29.57"   Gusts: NA
Location:  56.23°N, 118.6°W
Report Text: CYPE 220200Z 36003KT 15SM FEW025 SCT120 BKN200 M11/M13 A2957 RMK SC1AS2CI2 SLP055
Loading
Personal Weather Stations






























Interactive Weather Map New forecast layout! Learn more

10-Day Weather Forecast

Advertisements
Track Severe Weather on mobile